createdAt,value
2019-03-19T00:01:58.399Z,3.65
2019-03-19T00:04:27.727Z,3.95
2019-03-19T00:06:57.036Z,3.35
2019-03-19T00:09:26.293Z,3.50
2019-03-19T00:11:57.793Z,3.15
2019-03-19T00:14:26.607Z,2.67
2019-03-19T00:16:55.923Z,3.40
2019-03-19T00:19:25.194Z,3.47
2019-03-19T00:21:54.484Z,3.20
2019-03-19T00:24:23.759Z,3.10
2019-03-19T00:26:53.051Z,3.40
2019-03-19T00:29:22.327Z,2.55
2019-03-19T00:31:51.684Z,3.52
2019-03-19T00:34:20.949Z,3.75
2019-03-19T00:36:50.243Z,3.95
2019-03-19T00:39:19.526Z,5.35
2019-03-19T00:41:48.885Z,4.00
2019-03-19T00:44:18.710Z,4.00
2019-03-19T00:46:48.079Z,3.30
2019-03-19T00:49:17.349Z,4.35
2019-03-19T00:51:46.630Z,4.30
2019-03-19T00:54:15.900Z,3.72
2019-03-19T00:56:45.192Z,4.75
2019-03-19T00:59:14.470Z,4.17
2019-03-19T01:01:43.771Z,3.87
2019-03-19T01:04:13.024Z,3.80
2019-03-19T01:06:42.308Z,4.45
2019-03-19T01:09:11.568Z,4.05
2019-03-19T01:11:40.854Z,4.40
2019-03-19T01:14:10.145Z,4.85
2019-03-19T01:16:39.435Z,4.37
2019-03-19T01:19:08.710Z,4.03
2019-03-19T01:21:37.991Z,5.70
2019-03-19T01:24:07.261Z,3.85
2019-03-19T01:26:36.548Z,4.50
2019-03-19T01:29:05.824Z,4.92
2019-03-19T01:31:35.121Z,4.85
2019-03-19T01:34:04.394Z,4.67
2019-03-19T01:36:33.695Z,4.55
2019-03-19T01:39:03.174Z,4.95
2019-03-19T01:41:32.464Z,4.60
2019-03-19T01:44:01.724Z,4.58
2019-03-19T01:46:31.032Z,4.85
2019-03-19T01:49:00.323Z,5.10
2019-03-19T01:51:29.734Z,5.78
2019-03-19T01:53:59.062Z,4.20
2019-03-19T01:56:28.351Z,5.45
2019-03-19T01:58:57.626Z,4.58
2019-03-19T02:01:26.916Z,4.25
2019-03-19T02:03:56.196Z,5.00
2019-03-19T02:06:25.496Z,5.40
2019-03-19T02:08:54.762Z,4.78
2019-03-19T02:11:24.316Z,5.90
2019-03-19T02:13:53.588Z,5.55
2019-03-19T02:16:22.887Z,5.53
2019-03-19T02:18:52.229Z,4.83
2019-03-19T02:21:21.541Z,5.97
2019-03-19T02:23:50.821Z,4.85
2019-03-19T02:26:20.116Z,5.37
2019-03-19T02:28:49.395Z,4.72
2019-03-19T02:31:18.688Z,4.97
2019-03-19T02:33:48.120Z,4.55
2019-03-19T02:36:17.425Z,6.40
2019-03-19T02:38:46.749Z,4.60
2019-03-19T02:41:18.102Z,4.40
2019-03-19T02:43:47.416Z,4.40
2019-03-19T02:46:16.691Z,5.67
2019-03-19T02:48:45.978Z,4.95
2019-03-19T02:51:15.260Z,5.40
2019-03-19T02:53:44.529Z,4.72
2019-03-19T02:56:13.822Z,5.67
2019-03-19T02:58:43.094Z,5.00
2019-03-19T03:01:12.362Z,5.75
2019-03-19T03:03:41.712Z,5.28
2019-03-19T03:06:10.994Z,4.45
2019-03-19T03:08:40.245Z,4.90
2019-03-19T03:11:09.552Z,7.35
2019-03-19T03:13:38.910Z,5.28
2019-03-19T03:16:08.267Z,4.72
2019-03-19T03:18:37.530Z,4.53
2019-03-19T03:21:06.813Z,5.62
2019-03-19T03:23:36.093Z,4.97
2019-03-19T03:26:05.397Z,4.83
2019-03-19T03:28:34.652Z,6.12
2019-03-19T03:31:03.967Z,4.85
2019-03-19T03:33:33.218Z,6.20
2019-03-19T03:36:02.514Z,5.75
2019-03-19T03:38:31.792Z,6.05
2019-03-19T03:41:01.362Z,4.55
2019-03-19T03:43:30.665Z,5.92
2019-03-19T03:46:00.005Z,5.00
2019-03-19T03:48:29.289Z,5.90
2019-03-19T03:50:58.577Z,5.15
2019-03-19T03:53:28.009Z,5.30
2019-03-19T03:55:57.290Z,4.15
2019-03-19T03:58:26.576Z,4.67
2019-03-19T04:00:55.947Z,5.10
2019-03-19T04:03:25.229Z,5.83
2019-03-19T04:05:54.512Z,5.58
2019-03-19T04:08:23.791Z,5.30
2019-03-19T04:10:53.066Z,5.53
2019-03-19T04:13:22.420Z,5.25
2019-03-19T04:15:51.760Z,5.40
2019-03-19T04:18:21.042Z,5.90
2019-03-19T04:20:50.376Z,5.62
2019-03-19T04:23:19.665Z,6.40
2019-03-19T04:25:48.986Z,6.30
2019-03-19T04:28:18.260Z,6.35
2019-03-19T04:30:47.532Z,5.12
2019-03-19T04:33:16.805Z,5.12
2019-03-19T04:35:46.062Z,5.90
2019-03-19T04:38:15.344Z,5.95
2019-03-19T04:40:44.624Z,5.25
2019-03-19T04:43:13.928Z,6.12
2019-03-19T04:45:43.221Z,5.10
2019-03-19T04:48:12.511Z,6.17
2019-03-19T04:50:41.765Z,6.70
2019-03-19T04:53:11.044Z,6.30
2019-03-19T04:55:40.316Z,5.83
2019-03-19T04:58:09.660Z,5.78
2019-03-19T05:00:38.929Z,6.03
2019-03-19T05:03:08.222Z,6.47
2019-03-19T05:05:37.598Z,6.42
2019-03-19T05:08:06.950Z,7.08
2019-03-19T05:10:36.240Z,6.15
2019-03-19T05:13:05.530Z,5.85
2019-03-19T05:15:34.809Z,6.45
2019-03-19T05:18:04.102Z,6.00
2019-03-19T05:20:33.464Z,6.28
2019-03-19T05:23:02.728Z,5.42
2019-03-19T05:25:32.007Z,6.40
2019-03-19T05:28:01.269Z,5.50
2019-03-19T05:30:30.555Z,6.15
2019-03-19T05:32:59.816Z,5.35
2019-03-19T05:35:29.110Z,7.42
2019-03-19T05:37:58.369Z,6.95
2019-03-19T05:40:27.654Z,6.28
2019-03-19T05:42:56.904Z,5.70
2019-03-19T05:45:26.202Z,5.80
2019-03-19T05:47:55.507Z,6.60
2019-03-19T05:50:24.847Z,7.25
2019-03-19T05:52:54.134Z,7.33
2019-03-19T05:55:23.392Z,6.15
2019-03-19T05:57:52.697Z,6.22
2019-03-19T06:00:22.905Z,6.70
2019-03-19T06:02:52.186Z,6.90
2019-03-19T06:05:21.628Z,7.92
2019-03-19T06:07:51.023Z,6.50
2019-03-19T06:10:20.288Z,8.10
2019-03-19T06:12:49.594Z,6.15
2019-03-19T06:15:19.036Z,7.17
2019-03-19T06:17:48.323Z,7.72
2019-03-19T06:20:17.626Z,6.23
2019-03-19T06:22:46.909Z,6.70
2019-03-19T06:25:16.188Z,5.43
2019-03-19T06:27:45.578Z,6.60
2019-03-19T06:30:16.633Z,5.80
2019-03-19T06:32:46.182Z,5.63
2019-03-19T06:35:15.467Z,5.90
2019-03-19T06:37:44.798Z,6.10
2019-03-19T06:40:14.662Z,7.00
2019-03-19T06:42:43.956Z,6.87
2019-03-19T06:45:14.142Z,7.03
2019-03-19T06:47:43.415Z,6.47
2019-03-19T06:50:13.204Z,7.27
2019-03-19T06:52:42.596Z,7.30
2019-03-19T06:55:12.796Z,6.87
2019-03-19T06:57:42.096Z,7.27
2019-03-19T07:00:14.864Z,7.00
2019-03-19T07:02:44.165Z,6.60
2019-03-19T07:05:13.795Z,5.80
2019-03-19T07:07:43.066Z,6.27
2019-03-19T07:10:12.915Z,7.13
2019-03-19T07:12:42.205Z,6.33
2019-03-19T07:15:13.030Z,7.30
2019-03-19T07:17:42.328Z,6.30
2019-03-19T07:20:13.291Z,6.83
2019-03-19T07:22:42.729Z,7.23
2019-03-19T07:25:12.133Z,6.70
2019-03-19T07:27:41.433Z,6.33
2019-03-19T07:30:13.891Z,6.93
2019-03-19T07:32:43.163Z,7.23
2019-03-19T07:35:12.457Z,7.50
2019-03-19T07:37:41.754Z,6.70
2019-03-19T07:40:11.491Z,7.60
2019-03-19T07:42:40.751Z,7.40
2019-03-19T07:45:12.647Z,7.80
2019-03-19T07:47:41.948Z,6.87
2019-03-19T07:50:12.885Z,7.50
2019-03-19T07:52:42.196Z,6.87
2019-03-19T07:55:11.528Z,7.20
2019-03-19T07:57:40.798Z,8.80
2019-03-19T08:00:11.719Z,8.20
2019-03-19T08:02:40.998Z,8.67
2019-03-19T08:05:10.434Z,8.70
2019-03-19T08:07:39.801Z,8.20
2019-03-19T08:10:09.917Z,6.83
2019-03-19T08:12:39.188Z,9.80
2019-03-19T08:15:10.464Z,7.27
2019-03-19T08:17:39.758Z,8.00
2019-03-19T08:20:10.069Z,9.97
2019-03-19T08:22:39.353Z,8.80
2019-03-19T08:25:08.970Z,8.50
2019-03-19T08:27:38.306Z,7.30
2019-03-19T08:30:10.123Z,8.47
2019-03-19T08:32:39.447Z,8.27
2019-03-19T08:35:08.863Z,7.40
2019-03-19T08:37:38.160Z,8.23
2019-03-19T08:40:08.949Z,7.13
2019-03-19T08:42:38.270Z,8.17
2019-03-19T08:45:09.103Z,8.57
2019-03-19T08:47:38.562Z,7.87
2019-03-19T08:50:09.745Z,7.60
2019-03-19T08:52:39.111Z,7.27
2019-03-19T08:55:08.408Z,7.90
2019-03-19T08:57:37.709Z,8.03
2019-03-19T09:00:09.294Z,7.87
2019-03-19T09:02:38.605Z,8.03
2019-03-19T09:05:08.695Z,7.60
2019-03-19T09:07:38.014Z,8.00
2019-03-19T09:10:08.023Z,7.57
2019-03-19T09:12:37.313Z,7.40
2019-03-19T09:15:08.058Z,6.20
2019-03-19T09:17:37.364Z,5.80
2019-03-19T09:20:08.582Z,6.40
2019-03-19T09:22:37.858Z,7.03
2019-03-19T09:25:07.208Z,7.07
2019-03-19T09:27:36.517Z,6.97
2019-03-19T09:30:06.800Z,6.80
2019-03-19T09:32:36.112Z,6.37
2019-03-19T09:35:05.699Z,6.00
2019-03-19T09:37:35.013Z,6.10
2019-03-19T09:40:05.006Z,7.80
2019-03-19T09:42:34.331Z,6.50
2019-03-19T09:45:04.250Z,5.43
2019-03-19T09:47:33.577Z,5.90
2019-03-19T09:50:02.896Z,4.57
2019-03-19T09:52:32.183Z,5.90
2019-03-19T09:55:01.468Z,5.20
2019-03-19T09:57:30.765Z,5.67
2019-03-19T10:00:00.165Z,4.83
2019-03-19T10:02:29.773Z,4.90
2019-03-19T10:04:59.053Z,6.03
2019-03-19T10:07:28.333Z,4.63
2019-03-19T10:09:57.653Z,5.90
2019-03-19T10:12:26.912Z,5.50
2019-03-19T10:14:56.219Z,4.63
2019-03-19T10:17:25.526Z,5.53
2019-03-19T10:19:54.839Z,4.77
2019-03-19T10:22:24.119Z,4.67
2019-03-19T10:24:53.430Z,4.80
2019-03-19T10:27:22.785Z,6.20
2019-03-19T10:29:52.088Z,5.17
2019-03-19T10:32:21.378Z,4.73
2019-03-19T10:34:50.765Z,4.77
2019-03-19T10:37:20.507Z,4.27
2019-03-19T10:39:49.790Z,3.83
2019-03-19T10:42:19.086Z,3.50
2019-03-19T10:44:48.436Z,3.87
2019-03-19T10:47:17.722Z,3.03
2019-03-19T10:49:47.002Z,3.90
2019-03-19T10:52:16.310Z,3.13
2019-03-19T10:54:45.590Z,2.87
2019-03-19T10:57:14.878Z,3.30
2019-03-19T10:59:49.182Z,3.77
2019-03-19T11:02:15.177Z,4.13
2019-03-19T11:04:44.436Z,4.07
2019-03-19T11:07:15.280Z,3.13
2019-03-19T11:09:44.813Z,4.03
2019-03-19T11:12:14.115Z,4.17
2019-03-19T11:14:43.399Z,3.77
2019-03-19T11:17:12.710Z,2.87
2019-03-19T11:19:42.059Z,3.00
2019-03-19T11:22:11.448Z,4.00
2019-03-19T11:24:40.734Z,3.20
2019-03-19T11:27:10.090Z,3.10
2019-03-19T11:29:39.392Z,3.23
2019-03-19T11:32:08.729Z,3.47
2019-03-19T11:34:38.022Z,3.97
2019-03-19T11:37:07.390Z,3.50
2019-03-19T11:39:36.662Z,3.33
2019-03-19T11:42:05.963Z,3.60
2019-03-19T11:44:35.245Z,3.60
2019-03-19T11:47:04.756Z,3.83
2019-03-19T11:49:34.040Z,3.50
2019-03-19T11:52:03.350Z,4.03
2019-03-19T11:54:32.629Z,3.87
2019-03-19T11:57:02.002Z,3.50
2019-03-19T11:59:31.303Z,4.00
2019-03-19T12:02:00.609Z,2.93
2019-03-19T12:04:29.985Z,2.80
2019-03-19T12:06:59.286Z,2.90
2019-03-19T12:09:28.577Z,3.63
2019-03-19T12:11:57.853Z,3.40
2019-03-19T12:14:27.127Z,3.77
2019-03-19T12:16:56.410Z,4.47
2019-03-19T12:19:25.692Z,3.57
2019-03-19T12:21:54.960Z,4.73
2019-03-19T12:24:24.293Z,3.97
2019-03-19T12:26:53.606Z,3.47
2019-03-19T12:29:22.979Z,3.43
2019-03-19T12:31:52.278Z,3.07
2019-03-19T12:34:21.570Z,2.53
2019-03-19T12:36:50.844Z,3.27
2019-03-19T12:39:20.129Z,2.80
2019-03-19T12:41:49.416Z,2.90
2019-03-19T12:44:18.846Z,3.33
2019-03-19T12:46:48.141Z,4.00
2019-03-19T12:49:17.421Z,3.77
2019-03-19T12:51:46.792Z,4.23
2019-03-19T12:54:16.137Z,3.40
2019-03-19T12:56:45.495Z,3.67
2019-03-19T12:59:20.122Z,3.60
2019-03-19T13:01:45.861Z,3.77
2019-03-19T13:04:15.250Z,3.20
2019-03-19T13:06:44.563Z,3.47
2019-03-19T13:09:13.869Z,3.10
2019-03-19T13:11:43.162Z,3.30
2019-03-19T13:14:12.457Z,2.80
2019-03-19T13:16:42.916Z,3.33
2019-03-19T13:19:12.367Z,3.80
2019-03-19T13:21:41.652Z,3.13
2019-03-19T13:24:10.968Z,3.60
2019-03-19T13:26:40.259Z,3.53
2019-03-19T13:29:09.577Z,4.30
2019-03-19T13:31:38.858Z,3.40
2019-03-19T13:34:08.142Z,3.70
2019-03-19T13:36:37.526Z,3.47
2019-03-19T13:39:08.934Z,3.70
2019-03-19T13:41:38.211Z,3.80
2019-03-19T13:44:07.497Z,2.97
2019-03-19T13:46:36.865Z,4.00
2019-03-19T13:49:06.130Z,3.07
2019-03-19T13:51:35.453Z,4.00
2019-03-19T13:54:04.731Z,3.57
2019-03-19T13:56:34.029Z,3.70
2019-03-19T13:59:03.300Z,3.77
2019-03-19T14:01:32.569Z,3.27
2019-03-19T14:04:01.860Z,4.37
2019-03-19T14:06:31.120Z,3.40
2019-03-19T14:09:00.404Z,2.43
2019-03-19T14:11:29.694Z,2.57
2019-03-19T14:13:58.981Z,2.53
2019-03-19T14:16:28.281Z,3.40
2019-03-19T14:18:57.565Z,2.63
2019-03-19T14:21:26.829Z,3.40
2019-03-19T14:23:56.132Z,3.10
2019-03-19T14:26:25.404Z,3.50
2019-03-19T14:28:54.708Z,3.50
2019-03-19T14:31:24.613Z,3.60
2019-03-19T14:33:53.891Z,3.23
2019-03-19T14:36:23.157Z,3.43
2019-03-19T14:38:52.488Z,3.50
2019-03-19T14:41:21.769Z,3.70
2019-03-19T14:43:51.069Z,4.03
2019-03-19T14:46:20.326Z,4.67
2019-03-19T14:48:49.620Z,3.50
2019-03-19T14:51:18.891Z,4.40
2019-03-19T14:53:48.242Z,4.03
2019-03-19T14:56:17.573Z,3.43
2019-03-19T14:58:46.877Z,3.83
2019-03-19T15:01:19.657Z,3.87
2019-03-19T15:03:47.230Z,2.90
2019-03-19T15:06:16.528Z,3.50
2019-03-19T15:08:45.826Z,3.83
2019-03-19T15:11:15.101Z,3.83
2019-03-19T15:13:44.385Z,3.20
2019-03-19T15:16:13.685Z,3.67
2019-03-19T15:18:42.985Z,4.40
2019-03-19T15:21:12.248Z,4.20
2019-03-19T15:23:42.052Z,4.33
2019-03-19T15:26:11.317Z,4.20
2019-03-19T15:28:40.585Z,5.00
2019-03-19T15:31:09.905Z,3.70
2019-03-19T15:33:39.199Z,3.97
2019-03-19T15:36:08.487Z,3.83
2019-03-19T15:38:37.739Z,4.23
2019-03-19T15:41:07.029Z,3.97
2019-03-19T15:43:36.333Z,4.00
2019-03-19T15:46:05.616Z,4.10
2019-03-19T15:48:35.185Z,4.03
2019-03-19T15:51:04.446Z,4.20
2019-03-19T15:53:33.727Z,3.30
2019-03-19T15:56:03.015Z,3.93
2019-03-19T15:58:32.313Z,3.97
2019-03-19T16:01:01.594Z,3.63
2019-03-19T16:03:30.888Z,4.13
2019-03-19T16:06:00.236Z,4.60
2019-03-19T16:08:29.536Z,4.73
2019-03-19T16:10:58.866Z,4.97
2019-03-19T16:13:28.140Z,3.90
2019-03-19T16:15:57.405Z,4.73
2019-03-19T16:18:27.620Z,3.47
2019-03-19T16:20:57.008Z,5.20
2019-03-19T16:23:26.294Z,4.80
2019-03-19T16:25:55.557Z,5.10
2019-03-19T16:28:24.868Z,4.77
2019-03-19T16:30:54.121Z,4.40
2019-03-19T16:33:23.475Z,5.27
2019-03-19T16:35:52.818Z,4.60
2019-03-19T16:38:22.072Z,5.67
2019-03-19T16:40:52.621Z,5.50
2019-03-19T16:43:21.916Z,5.37
2019-03-19T16:45:51.213Z,4.50
2019-03-19T16:48:20.469Z,3.97
2019-03-19T16:50:49.766Z,5.47
2019-03-19T16:53:19.038Z,4.47
2019-03-19T16:55:48.341Z,4.80
2019-03-19T16:58:17.613Z,5.93
2019-03-19T17:00:46.904Z,5.90
2019-03-19T17:03:16.185Z,5.23
2019-03-19T17:05:45.469Z,4.50
2019-03-19T17:08:14.821Z,5.60
2019-03-19T17:10:44.100Z,5.77
2019-03-19T17:13:13.365Z,4.97
2019-03-19T17:15:42.673Z,5.80
2019-03-19T17:18:11.928Z,5.40
2019-03-19T17:20:41.194Z,4.90
2019-03-19T17:23:10.473Z,5.10
2019-03-19T17:25:39.761Z,4.43
2019-03-19T17:28:09.044Z,5.17
2019-03-19T17:30:38.311Z,5.90
2019-03-19T17:33:07.604Z,7.53
2019-03-19T17:35:36.957Z,4.97
2019-03-19T17:38:06.256Z,6.70
2019-03-19T17:40:41.225Z,5.53
2019-03-19T17:43:06.718Z,5.50
2019-03-19T17:45:36.041Z,6.20
2019-03-19T17:48:15.446Z,6.17
2019-03-19T17:50:36.507Z,6.40
2019-03-19T17:53:05.822Z,6.37
2019-03-19T17:55:35.086Z,7.40
2019-03-19T17:58:04.473Z,5.30
2019-03-19T18:00:34.084Z,7.40
2019-03-19T18:03:03.364Z,7.80
2019-03-19T18:05:32.636Z,9.10
2019-03-19T18:08:02.129Z,6.37
2019-03-19T18:10:31.380Z,7.17
2019-03-19T18:13:00.656Z,6.30
2019-03-19T18:15:29.910Z,7.50
2019-03-19T18:17:59.309Z,5.70
2019-03-19T18:20:28.830Z,6.87
2019-03-19T18:22:58.117Z,6.20
2019-03-19T18:25:27.504Z,6.97
2019-03-19T18:27:56.945Z,7.40
2019-03-19T18:30:27.429Z,5.33
2019-03-19T18:32:57.109Z,7.00
2019-03-19T18:35:26.542Z,6.27
2019-03-19T18:37:55.796Z,6.37
2019-03-19T18:40:25.086Z,6.30
2019-03-19T18:42:54.358Z,6.27
2019-03-19T18:45:23.744Z,7.03
2019-03-19T18:47:53.019Z,7.20
2019-03-19T18:50:22.379Z,6.97
2019-03-19T18:52:51.753Z,6.03
2019-03-19T18:55:21.056Z,7.40
2019-03-19T18:57:50.442Z,6.17
2019-03-19T19:00:19.789Z,5.10
2019-03-19T19:02:50.788Z,6.40
2019-03-19T19:05:20.332Z,6.50
2019-03-19T19:07:49.620Z,7.87
2019-03-19T19:10:21.168Z,6.57
2019-03-19T19:12:50.236Z,7.47
2019-03-19T19:15:19.582Z,9.17
2019-03-19T19:17:48.890Z,9.33
2019-03-19T19:20:18.676Z,8.90
2019-03-19T19:22:48.037Z,10.07
2019-03-19T19:25:17.339Z,12.97
2019-03-19T19:27:46.708Z,9.07
2019-03-19T19:30:17.918Z,10.20
2019-03-19T19:32:47.429Z,10.93
2019-03-19T19:35:16.800Z,9.30
2019-03-19T19:37:46.112Z,8.90
2019-03-19T19:40:16.666Z,7.67
2019-03-19T19:42:46.199Z,9.17
2019-03-19T19:45:15.602Z,8.80
2019-03-19T19:47:44.888Z,7.50
2019-03-19T19:50:14.707Z,8.70
2019-03-19T19:52:44.073Z,7.50
2019-03-19T19:55:13.489Z,9.83
2019-03-19T19:57:42.774Z,7.00
2019-03-19T20:00:15.235Z,7.93
2019-03-19T20:02:44.686Z,14.83
2019-03-19T20:05:13.972Z,10.30
2019-03-19T20:07:43.389Z,11.53
2019-03-19T20:10:14.928Z,11.30
2019-03-19T20:12:44.216Z,9.30
2019-03-19T20:15:13.524Z,9.87
2019-03-19T20:17:42.880Z,9.80
2019-03-19T20:20:14.468Z,8.23
2019-03-19T20:22:44.801Z,9.33
2019-03-19T20:25:14.437Z,9.20
2019-03-19T20:27:43.692Z,11.63
2019-03-19T20:30:17.817Z,10.20
2019-03-19T20:32:47.189Z,11.70
2019-03-19T20:35:16.615Z,11.53
2019-03-19T20:37:45.884Z,10.43
2019-03-19T20:40:15.200Z,11.73
2019-03-19T20:42:44.478Z,12.50
2019-03-19T20:45:13.788Z,11.40
2019-03-19T20:47:43.089Z,12.83
2019-03-19T20:50:21.026Z,12.17
2019-03-19T20:52:50.308Z,10.53
2019-03-19T20:55:19.658Z,11.40
2019-03-19T20:57:49.043Z,11.67
2019-03-19T21:00:18.615Z,10.90
2019-03-19T21:02:47.984Z,12.30
2019-03-19T21:05:17.361Z,13.80
2019-03-19T21:07:46.744Z,13.40
2019-03-19T21:10:17.455Z,16.53
2019-03-19T21:12:46.742Z,11.70
2019-03-19T21:15:18.096Z,11.03
2019-03-19T21:17:47.642Z,10.20
2019-03-19T21:20:17.143Z,12.80
2019-03-19T21:22:46.527Z,10.63
2019-03-19T21:25:16.166Z,10.83
2019-03-19T21:27:46.054Z,11.20
2019-03-19T21:30:15.911Z,12.50
2019-03-19T21:32:46.097Z,11.77
2019-03-19T21:35:16.913Z,10.80
2019-03-19T21:37:46.553Z,10.40
2019-03-19T21:40:16.167Z,11.40
2019-03-19T21:42:46.082Z,9.30
2019-03-19T21:45:15.887Z,11.20
2019-03-19T21:47:45.176Z,11.70
2019-03-19T21:50:14.957Z,11.63
2019-03-19T21:52:44.220Z,13.07
2019-03-19T21:55:16.926Z,10.60
2019-03-19T21:57:46.722Z,13.23
2019-03-19T22:00:17.356Z,21.23
2019-03-19T22:02:49.799Z,12.60
2019-03-19T22:05:19.201Z,13.23
2019-03-19T22:07:48.473Z,13.13
2019-03-19T22:10:17.764Z,11.87
2019-03-19T22:12:49.118Z,15.20
2019-03-19T22:15:18.376Z,11.00
2019-03-19T22:17:47.682Z,10.80
2019-03-19T22:20:17.048Z,8.50
2019-03-19T22:22:46.394Z,8.60
2019-03-19T22:25:15.776Z,9.60
2019-03-19T22:27:45.140Z,9.23
2019-03-19T22:30:15.694Z,9.63
2019-03-19T22:32:44.954Z,10.10
2019-03-19T22:35:14.339Z,9.53
2019-03-19T22:37:43.621Z,9.67
2019-03-19T22:40:14.233Z,9.27
2019-03-19T22:42:43.484Z,8.97
2019-03-19T22:45:13.837Z,8.55
2019-03-19T22:47:43.309Z,8.13
2019-03-19T22:50:13.342Z,9.73
2019-03-19T22:52:42.668Z,8.87
2019-03-19T22:55:12.029Z,8.70
2019-03-19T22:57:41.320Z,9.43
2019-03-19T23:00:18.712Z,9.48
2019-03-19T23:02:48.018Z,8.97
2019-03-19T23:05:17.337Z,9.33
2019-03-19T23:07:46.696Z,7.60
2019-03-19T23:10:15.978Z,8.33
2019-03-19T23:12:45.291Z,9.43
2019-03-19T23:15:14.873Z,7.30
2019-03-19T23:17:43.565Z,7.70
2019-03-19T23:20:12.326Z,8.00
2019-03-19T23:22:41.799Z,7.65
2019-03-19T23:25:11.911Z,6.97
2019-03-19T23:27:41.213Z,8.00
2019-03-19T23:30:11.027Z,8.63
2019-03-19T23:32:40.303Z,7.50
2019-03-19T23:35:09.614Z,7.28
2019-03-19T23:37:38.892Z,6.62
2019-03-19T23:40:08.593Z,7.00
2019-03-19T23:42:37.870Z,7.53
2019-03-19T23:45:07.552Z,7.95
2019-03-19T23:47:36.824Z,7.08
2019-03-19T23:50:07.643Z,8.10
2019-03-19T23:52:36.960Z,6.80
2019-03-19T23:55:06.758Z,6.15
2019-03-19T23:57:36.023Z,6.15
